sensor_id;sensor_type;location;lat;lon;timestamp;P1;durP1;ratioP1;P2;durP2;ratioP2
23362;SDS011;11853;48.080;11.960;2022-12-07T00:01:15;10.98;;;9.80;;
23362;SDS011;11853;48.080;11.960;2022-12-07T00:03:46;11.20;;;9.52;;
23362;SDS011;11853;48.080;11.960;2022-12-07T00:06:15;11.23;;;10.02;;
23362;SDS011;11853;48.080;11.960;2022-12-07T00:08:43;10.55;;;9.45;;
23362;SDS011;11853;48.080;11.960;2022-12-07T00:11:13;11.63;;;9.15;;
23362;SDS011;11853;48.080;11.960;2022-12-07T00:13:41;10.77;;;9.18;;
23362;SDS011;11853;48.080;11.960;2022-12-07T00:16:14;10.70;;;9.60;;
23362;SDS011;11853;48.080;11.960;2022-12-07T00:18:43;10.05;;;8.77;;
23362;SDS011;11853;48.080;11.960;2022-12-07T00:23:37;10.93;;;9.43;;
23362;SDS011;11853;48.080;11.960;2022-12-07T00:26:10;11.25;;;9.52;;
23362;SDS011;11853;48.080;11.960;2022-12-07T00:28:48;10.45;;;9.23;;
23362;SDS011;11853;48.080;11.960;2022-12-07T00:31:16;9.17;;;8.13;;
23362;SDS011;11853;48.080;11.960;2022-12-07T00:33:43;9.10;;;8.20;;
23362;SDS011;11853;48.080;11.960;2022-12-07T00:36:10;11.35;;;9.80;;
23362;SDS011;11853;48.080;11.960;2022-12-07T00:38:38;10.27;;;8.68;;
23362;SDS011;11853;48.080;11.960;2022-12-07T00:41:05;9.15;;;8.25;;
23362;SDS011;11853;48.080;11.960;2022-12-07T00:43:34;8.75;;;7.80;;
23362;SDS011;11853;48.080;11.960;2022-12-07T00:46:00;10.15;;;8.40;;
23362;SDS011;11853;48.080;11.960;2022-12-07T00:48:26;9.75;;;8.55;;
23362;SDS011;11853;48.080;11.960;2022-12-07T00:50:51;9.75;;;7.72;;
23362;SDS011;11853;48.080;11.960;2022-12-07T00:53:17;10.55;;;8.50;;
23362;SDS011;11853;48.080;11.960;2022-12-07T00:55:44;10.07;;;8.75;;
23362;SDS011;11853;48.080;11.960;2022-12-07T00:58:10;8.80;;;7.90;;
23362;SDS011;11853;48.080;11.960;2022-12-07T01:00:37;8.98;;;8.05;;
23362;SDS011;11853;48.080;11.960;2022-12-07T01:03:04;9.60;;;8.38;;
23362;SDS011;11853;48.080;11.960;2022-12-07T01:05:31;10.20;;;8.30;;
23362;SDS011;11853;48.080;11.960;2022-12-07T01:07:57;8.90;;;8.00;;
23362;SDS011;11853;48.080;11.960;2022-12-07T01:10:23;9.45;;;7.53;;
23362;SDS011;11853;48.080;11.960;2022-12-07T01:12:48;9.68;;;7.93;;
23362;SDS011;11853;48.080;11.960;2022-12-07T01:15:14;10.63;;;8.75;;
23362;SDS011;11853;48.080;11.960;2022-12-07T01:17:40;9.25;;;8.32;;
23362;SDS011;11853;48.080;11.960;2022-12-07T01:20:05;10.40;;;9.07;;
23362;SDS011;11853;48.080;11.960;2022-12-07T01:22:36;9.43;;;8.45;;
23362;SDS011;11853;48.080;11.960;2022-12-07T01:25:03;11.07;;;8.65;;
23362;SDS011;11853;48.080;11.960;2022-12-07T01:27:29;10.13;;;9.02;;
23362;SDS011;11853;48.080;11.960;2022-12-07T01:29:54;10.00;;;8.93;;
23362;SDS011;11853;48.080;11.960;2022-12-07T01:32:20;9.18;;;8.10;;
23362;SDS011;11853;48.080;11.960;2022-12-07T01:34:47;10.55;;;8.75;;
23362;SDS011;11853;48.080;11.960;2022-12-07T01:37:13;10.00;;;8.85;;
23362;SDS011;11853;48.080;11.960;2022-12-07T01:39:39;10.00;;;9.00;;
23362;SDS011;11853;48.080;11.960;2022-12-07T01:42:04;10.57;;;9.25;;
23362;SDS011;11853;48.080;11.960;2022-12-07T01:44:30;9.75;;;8.60;;
23362;SDS011;11853;48.080;11.960;2022-12-07T01:47:01;10.00;;;8.80;;
23362;SDS011;11853;48.080;11.960;2022-12-07T01:49:42;9.75;;;8.75;;
23362;SDS011;11853;48.080;11.960;2022-12-07T01:54:43;9.15;;;8.25;;
23362;SDS011;11853;48.080;11.960;2022-12-07T01:57:11;10.32;;;9.23;;
23362;SDS011;11853;48.080;11.960;2022-12-07T01:59:39;12.25;;;9.18;;
23362;SDS011;11853;48.080;11.960;2022-12-07T02:02:08;10.25;;;9.02;;
23362;SDS011;11853;48.080;11.960;2022-12-07T02:04:42;9.43;;;8.52;;
23362;SDS011;11853;48.080;11.960;2022-12-07T02:07:09;10.50;;;9.23;;
23362;SDS011;11853;48.080;11.960;2022-12-07T02:09:34;10.02;;;8.40;;
23362;SDS011;11853;48.080;11.960;2022-12-07T02:12:00;10.27;;;8.70;;
23362;SDS011;11853;48.080;11.960;2022-12-07T02:14:27;8.50;;;7.70;;
23362;SDS011;11853;48.080;11.960;2022-12-07T02:27:42;9.13;;;8.23;;
23362;SDS011;11853;48.080;11.960;2022-12-07T02:30:16;9.10;;;8.23;;
23362;SDS011;11853;48.080;11.960;2022-12-07T02:38:48;9.23;;;8.25;;
23362;SDS011;11853;48.080;11.960;2022-12-07T02:41:25;10.02;;;8.95;;
23362;SDS011;11853;48.080;11.960;2022-12-07T02:44:00;10.13;;;9.07;;
23362;SDS011;11853;48.080;11.960;2022-12-07T02:46:33;10.20;;;8.95;;
23362;SDS011;11853;48.080;11.960;2022-12-07T02:49:03;9.70;;;8.70;;
23362;SDS011;11853;48.080;11.960;2022-12-07T02:51:32;9.20;;;8.30;;
23362;SDS011;11853;48.080;11.960;2022-12-07T02:53:58;9.55;;;8.43;;
23362;SDS011;11853;48.080;11.960;2022-12-07T03:12:25;10.02;;;8.95;;
23362;SDS011;11853;48.080;11.960;2022-12-07T03:15:13;9.55;;;8.55;;
23362;SDS011;11853;48.080;11.960;2022-12-07T03:17:44;9.95;;;8.95;;
23362;SDS011;11853;48.080;11.960;2022-12-07T03:20:13;10.65;;;9.40;;
23362;SDS011;11853;48.080;11.960;2022-12-07T03:22:44;10.63;;;8.77;;
23362;SDS011;11853;48.080;11.960;2022-12-07T03:25:13;9.35;;;8.45;;
23362;SDS011;11853;48.080;11.960;2022-12-07T03:30:19;10.50;;;9.40;;
23362;SDS011;11853;48.080;11.960;2022-12-07T03:32:56;11.55;;;9.68;;
23362;SDS011;11853;48.080;11.960;2022-12-07T03:35:28;10.35;;;8.98;;
23362;SDS011;11853;48.080;11.960;2022-12-07T03:40:29;10.80;;;8.88;;
23362;SDS011;11853;48.080;11.960;2022-12-07T03:42:56;10.37;;;9.27;;
23362;SDS011;11853;48.080;11.960;2022-12-07T03:45:28;10.30;;;9.20;;
23362;SDS011;11853;48.080;11.960;2022-12-07T03:48:07;11.15;;;9.18;;
23362;SDS011;11853;48.080;11.960;2022-12-07T03:50:41;9.65;;;8.45;;
23362;SDS011;11853;48.080;11.960;2022-12-07T03:53:24;10.77;;;8.95;;
23362;SDS011;11853;48.080;11.960;2022-12-07T03:55:54;10.45;;;9.35;;
23362;SDS011;11853;48.080;11.960;2022-12-07T03:58:22;10.07;;;8.90;;
23362;SDS011;11853;48.080;11.960;2022-12-07T04:00:49;9.98;;;8.88;;
23362;SDS011;11853;48.080;11.960;2022-12-07T04:03:16;10.55;;;9.35;;
23362;SDS011;11853;48.080;11.960;2022-12-07T04:05:42;9.65;;;8.55;;
23362;SDS011;11853;48.080;11.960;2022-12-07T04:08:08;9.95;;;8.95;;
23362;SDS011;11853;48.080;11.960;2022-12-07T04:10:34;9.82;;;8.82;;
23362;SDS011;11853;48.080;11.960;2022-12-07T04:13:00;9.55;;;8.65;;
23362;SDS011;11853;48.080;11.960;2022-12-07T04:15:25;10.27;;;9.15;;
23362;SDS011;11853;48.080;11.960;2022-12-07T04:17:51;12.32;;;10.60;;
23362;SDS011;11853;48.080;11.960;2022-12-07T04:20:17;10.65;;;9.55;;
23362;SDS011;11853;48.080;11.960;2022-12-07T04:22:43;11.43;;;8.80;;
23362;SDS011;11853;48.080;11.960;2022-12-07T04:25:08;10.52;;;8.82;;
23362;SDS011;11853;48.080;11.960;2022-12-07T04:27:34;11.13;;;9.93;;
23362;SDS011;11853;48.080;11.960;2022-12-07T04:30:00;11.02;;;9.82;;
23362;SDS011;11853;48.080;11.960;2022-12-07T04:32:25;10.25;;;9.18;;
23362;SDS011;11853;48.080;11.960;2022-12-07T04:34:51;10.40;;;9.25;;
23362;SDS011;11853;48.080;11.960;2022-12-07T04:37:17;11.02;;;9.93;;
23362;SDS011;11853;48.080;11.960;2022-12-07T04:39:42;11.73;;;9.98;;
23362;SDS011;11853;48.080;11.960;2022-12-07T04:42:09;10.85;;;9.75;;
23362;SDS011;11853;48.080;11.960;2022-12-07T04:44:35;10.98;;;9.88;;
23362;SDS011;11853;48.080;11.960;2022-12-07T04:47:01;10.60;;;9.50;;
23362;SDS011;11853;48.080;11.960;2022-12-07T04:49:27;12.07;;;10.77;;
23362;SDS011;11853;48.080;11.960;2022-12-07T04:51:53;10.48;;;9.38;;
23362;SDS011;11853;48.080;11.960;2022-12-07T04:54:19;11.85;;;10.23;;
23362;SDS011;11853;48.080;11.960;2022-12-07T04:56:44;11.10;;;9.73;;
23362;SDS011;11853;48.080;11.960;2022-12-07T04:59:10;11.35;;;10.15;;
23362;SDS011;11853;48.080;11.960;2022-12-07T05:01:37;11.32;;;10.13;;
23362;SDS011;11853;48.080;11.960;2022-12-07T05:04:03;12.98;;;10.95;;
23362;SDS011;11853;48.080;11.960;2022-12-07T05:06:28;12.13;;;10.27;;
23362;SDS011;11853;48.080;11.960;2022-12-07T05:08:54;11.68;;;10.48;;
23362;SDS011;11853;48.080;11.960;2022-12-07T05:11:19;11.90;;;10.20;;
23362;SDS011;11853;48.080;11.960;2022-12-07T05:14:07;11.95;;;10.70;;
23362;SDS011;11853;48.080;11.960;2022-12-07T05:16:36;13.00;;;11.48;;
23362;SDS011;11853;48.080;11.960;2022-12-07T05:19:02;12.95;;;11.07;;
23362;SDS011;11853;48.080;11.960;2022-12-07T05:21:28;12.90;;;11.27;;
23362;SDS011;11853;48.080;11.960;2022-12-07T05:23:54;12.48;;;11.13;;
23362;SDS011;11853;48.080;11.960;2022-12-07T05:26:20;12.68;;;10.75;;
23362;SDS011;11853;48.080;11.960;2022-12-07T05:28:49;12.65;;;10.82;;
23362;SDS011;11853;48.080;11.960;2022-12-07T05:31:15;12.90;;;10.48;;
23362;SDS011;11853;48.080;11.960;2022-12-07T05:33:41;13.55;;;11.63;;
23362;SDS011;11853;48.080;11.960;2022-12-07T05:36:06;12.85;;;11.55;;
23362;SDS011;11853;48.080;11.960;2022-12-07T05:38:32;13.60;;;11.68;;
23362;SDS011;11853;48.080;11.960;2022-12-07T05:41:02;13.60;;;11.50;;
23362;SDS011;11853;48.080;11.960;2022-12-07T05:43:29;12.68;;;11.35;;
23362;SDS011;11853;48.080;11.960;2022-12-07T05:45:54;12.43;;;11.23;;
23362;SDS011;11853;48.080;11.960;2022-12-07T05:48:20;12.88;;;11.48;;
23362;SDS011;11853;48.080;11.960;2022-12-07T05:50:49;11.60;;;10.40;;
23362;SDS011;11853;48.080;11.960;2022-12-07T05:53:15;12.68;;;11.32;;
23362;SDS011;11853;48.080;11.960;2022-12-07T05:55:40;13.18;;;11.77;;
23362;SDS011;11853;48.080;11.960;2022-12-07T05:58:06;13.07;;;11.68;;
23362;SDS011;11853;48.080;11.960;2022-12-07T06:00:50;13.57;;;12.00;;
23362;SDS011;11853;48.080;11.960;2022-12-07T06:03:16;13.35;;;11.55;;
23362;SDS011;11853;48.080;11.960;2022-12-07T06:05:41;13.15;;;11.85;;
23362;SDS011;11853;48.080;11.960;2022-12-07T06:08:07;12.90;;;11.10;;
23362;SDS011;11853;48.080;11.960;2022-12-07T06:10:33;12.77;;;11.48;;
23362;SDS011;11853;48.080;11.960;2022-12-07T06:12:58;14.10;;;11.77;;
23362;SDS011;11853;48.080;11.960;2022-12-07T06:15:24;12.45;;;10.98;;
23362;SDS011;11853;48.080;11.960;2022-12-07T06:17:49;12.02;;;10.77;;
23362;SDS011;11853;48.080;11.960;2022-12-07T06:20:15;13.95;;;12.48;;
23362;SDS011;11853;48.080;11.960;2022-12-07T06:22:41;13.23;;;11.82;;
23362;SDS011;11853;48.080;11.960;2022-12-07T06:25:06;12.90;;;11.45;;
23362;SDS011;11853;48.080;11.960;2022-12-07T06:27:32;12.88;;;11.57;;
23362;SDS011;11853;48.080;11.960;2022-12-07T06:29:58;13.35;;;11.07;;
23362;SDS011;11853;48.080;11.960;2022-12-07T06:32:24;12.75;;;11.32;;
23362;SDS011;11853;48.080;11.960;2022-12-07T06:34:49;12.15;;;10.82;;
23362;SDS011;11853;48.080;11.960;2022-12-07T06:37:16;12.80;;;11.50;;
23362;SDS011;11853;48.080;11.960;2022-12-07T06:39:41;14.68;;;12.13;;
23362;SDS011;11853;48.080;11.960;2022-12-07T06:42:08;13.27;;;11.88;;
23362;SDS011;11853;48.080;11.960;2022-12-07T06:44:33;13.90;;;12.50;;
23362;SDS011;11853;48.080;11.960;2022-12-07T06:46:59;14.43;;;12.57;;
23362;SDS011;11853;48.080;11.960;2022-12-07T06:49:24;14.82;;;12.95;;
23362;SDS011;11853;48.080;11.960;2022-12-07T06:51:50;14.50;;;12.95;;
23362;SDS011;11853;48.080;11.960;2022-12-07T06:54:15;14.98;;;13.02;;
23362;SDS011;11853;48.080;11.960;2022-12-07T06:56:42;14.88;;;12.45;;
23362;SDS011;11853;48.080;11.960;2022-12-07T06:59:07;14.90;;;12.88;;
23362;SDS011;11853;48.080;11.960;2022-12-07T07:01:34;17.90;;;13.27;;
23362;SDS011;11853;48.080;11.960;2022-12-07T07:04:00;13.60;;;12.00;;
23362;SDS011;11853;48.080;11.960;2022-12-07T07:06:25;13.77;;;12.20;;
23362;SDS011;11853;48.080;11.960;2022-12-07T07:08:51;13.60;;;12.20;;
23362;SDS011;11853;48.080;11.960;2022-12-07T07:11:17;14.25;;;12.45;;
23362;SDS011;11853;48.080;11.960;2022-12-07T07:13:42;13.90;;;11.98;;
23362;SDS011;11853;48.080;11.960;2022-12-07T07:16:09;17.58;;;14.45;;
23362;SDS011;11853;48.080;11.960;2022-12-07T07:18:35;22.00;;;15.40;;
23362;SDS011;11853;48.080;11.960;2022-12-07T07:21:01;16.48;;;13.73;;
23362;SDS011;11853;48.080;11.960;2022-12-07T07:23:27;16.55;;;13.77;;
23362;SDS011;11853;48.080;11.960;2022-12-07T07:25:53;14.73;;;12.00;;
23362;SDS011;11853;48.080;11.960;2022-12-07T07:28:18;14.98;;;12.43;;
23362;SDS011;11853;48.080;11.960;2022-12-07T07:30:44;13.68;;;11.95;;
23362;SDS011;11853;48.080;11.960;2022-12-07T07:33:10;14.90;;;12.63;;
23362;SDS011;11853;48.080;11.960;2022-12-07T07:35:36;14.30;;;12.30;;
23362;SDS011;11853;48.080;11.960;2022-12-07T07:38:02;14.77;;;13.02;;
23362;SDS011;11853;48.080;11.960;2022-12-07T07:40:28;12.60;;;11.30;;
23362;SDS011;11853;48.080;11.960;2022-12-07T07:42:54;14.20;;;12.45;;
23362;SDS011;11853;48.080;11.960;2022-12-07T07:45:20;13.48;;;12.02;;
23362;SDS011;11853;48.080;11.960;2022-12-07T07:47:48;14.68;;;12.82;;
23362;SDS011;11853;48.080;11.960;2022-12-07T07:50:14;13.55;;;12.15;;
23362;SDS011;11853;48.080;11.960;2022-12-07T07:52:39;13.43;;;12.02;;
23362;SDS011;11853;48.080;11.960;2022-12-07T07:55:05;13.35;;;11.95;;
23362;SDS011;11853;48.080;11.960;2022-12-07T07:57:33;13.00;;;11.23;;
23362;SDS011;11853;48.080;11.960;2022-12-07T08:00:00;13.57;;;12.18;;
23362;SDS011;11853;48.080;11.960;2022-12-07T08:02:25;14.02;;;12.32;;
23362;SDS011;11853;48.080;11.960;2022-12-07T08:04:51;14.02;;;12.20;;
23362;SDS011;11853;48.080;11.960;2022-12-07T08:07:16;14.10;;;12.55;;
23362;SDS011;11853;48.080;11.960;2022-12-07T08:09:42;13.75;;;11.95;;
23362;SDS011;11853;48.080;11.960;2022-12-07T08:12:07;13.50;;;12.10;;
23362;SDS011;11853;48.080;11.960;2022-12-07T08:14:33;14.25;;;12.65;;
23362;SDS011;11853;48.080;11.960;2022-12-07T08:16:59;14.00;;;12.50;;
23362;SDS011;11853;48.080;11.960;2022-12-07T08:19:25;13.43;;;12.02;;
23362;SDS011;11853;48.080;11.960;2022-12-07T08:21:51;14.55;;;12.23;;
23362;SDS011;11853;48.080;11.960;2022-12-07T08:24:16;14.48;;;12.32;;
23362;SDS011;11853;48.080;11.960;2022-12-07T08:26:42;14.70;;;13.10;;
23362;SDS011;11853;48.080;11.960;2022-12-07T08:29:07;16.17;;;14.00;;
23362;SDS011;11853;48.080;11.960;2022-12-07T08:31:33;13.25;;;11.80;;
23362;SDS011;11853;48.080;11.960;2022-12-07T08:33:59;13.68;;;12.07;;
23362;SDS011;11853;48.080;11.960;2022-12-07T08:36:24;13.40;;;12.02;;
23362;SDS011;11853;48.080;11.960;2022-12-07T08:38:50;13.43;;;11.80;;
23362;SDS011;11853;48.080;11.960;2022-12-07T08:41:16;15.48;;;13.90;;
23362;SDS011;11853;48.080;11.960;2022-12-07T08:43:41;14.43;;;12.93;;
23362;SDS011;11853;48.080;11.960;2022-12-07T08:46:17;15.25;;;13.55;;
23362;SDS011;11853;48.080;11.960;2022-12-07T08:51:22;14.43;;;12.40;;
23362;SDS011;11853;48.080;11.960;2022-12-07T08:53:49;14.13;;;12.65;;
23362;SDS011;11853;48.080;11.960;2022-12-07T08:56:16;14.55;;;12.77;;
23362;SDS011;11853;48.080;11.960;2022-12-07T08:58:41;16.55;;;14.32;;
23362;SDS011;11853;48.080;11.960;2022-12-07T09:01:07;16.70;;;14.90;;
23362;SDS011;11853;48.080;11.960;2022-12-07T09:03:33;19.83;;;16.92;;
23362;SDS011;11853;48.080;11.960;2022-12-07T09:05:59;15.52;;;13.63;;
23362;SDS011;11853;48.080;11.960;2022-12-07T09:08:26;13.13;;;11.73;;
23362;SDS011;11853;48.080;11.960;2022-12-07T09:10:58;15.48;;;11.88;;
23362;SDS011;11853;48.080;11.960;2022-12-07T09:13:24;12.60;;;11.13;;
23362;SDS011;11853;48.080;11.960;2022-12-07T09:15:49;11.35;;;10.25;;
23362;SDS011;11853;48.080;11.960;2022-12-07T09:18:15;11.00;;;9.90;;
23362;SDS011;11853;48.080;11.960;2022-12-07T09:20:40;10.85;;;9.68;;
23362;SDS011;11853;48.080;11.960;2022-12-07T09:23:06;12.43;;;10.82;;
23362;SDS011;11853;48.080;11.960;2022-12-07T09:25:32;12.45;;;10.52;;
23362;SDS011;11853;48.080;11.960;2022-12-07T09:27:58;10.70;;;9.60;;
23362;SDS011;11853;48.080;11.960;2022-12-07T09:30:26;12.35;;;11.05;;
23362;SDS011;11853;48.080;11.960;2022-12-07T09:32:55;10.70;;;9.60;;
23362;SDS011;11853;48.080;11.960;2022-12-07T09:35:22;11.77;;;10.32;;
23362;SDS011;11853;48.080;11.960;2022-12-07T09:37:50;11.48;;;10.20;;
23362;SDS011;11853;48.080;11.960;2022-12-07T09:40:16;13.40;;;12.00;;
23362;SDS011;11853;48.080;11.960;2022-12-07T09:42:44;11.73;;;10.52;;
23362;SDS011;11853;48.080;11.960;2022-12-07T09:45:15;10.23;;;9.23;;
23362;SDS011;11853;48.080;11.960;2022-12-07T09:47:44;10.00;;;9.00;;
23362;SDS011;11853;48.080;11.960;2022-12-07T09:50:12;9.38;;;8.50;;
23362;SDS011;11853;48.080;11.960;2022-12-07T09:52:42;11.98;;;9.70;;
23362;SDS011;11853;48.080;11.960;2022-12-07T09:55:11;9.77;;;8.82;;
23362;SDS011;11853;48.080;11.960;2022-12-07T09:57:38;10.75;;;9.65;;
23362;SDS011;11853;48.080;11.960;2022-12-07T10:00:06;10.52;;;8.45;;
23362;SDS011;11853;48.080;11.960;2022-12-07T10:02:42;9.48;;;8.57;;
23362;SDS011;11853;48.080;11.960;2022-12-07T10:05:12;10.10;;;9.10;;
23362;SDS011;11853;48.080;11.960;2022-12-07T10:07:40;9.82;;;8.88;;
23362;SDS011;11853;48.080;11.960;2022-12-07T10:10:06;11.38;;;10.18;;
23362;SDS011;11853;48.080;11.960;2022-12-07T10:13:01;14.50;;;11.40;;
23362;SDS011;11853;48.080;11.960;2022-12-07T10:15:43;13.95;;;10.13;;
23362;SDS011;11853;48.080;11.960;2022-12-07T10:18:25;17.55;;;12.63;;
23362;SDS011;11853;48.080;11.960;2022-12-07T10:20:59;21.25;;;14.02;;
23362;SDS011;11853;48.080;11.960;2022-12-07T10:23:27;21.08;;;14.80;;
23362;SDS011;11853;48.080;11.960;2022-12-07T10:25:52;14.63;;;11.38;;
23362;SDS011;11853;48.080;11.960;2022-12-07T10:28:20;9.07;;;8.18;;
23362;SDS011;11853;48.080;11.960;2022-12-07T10:39:04;9.05;;;8.15;;
23362;SDS011;11853;48.080;11.960;2022-12-07T10:44:30;9.10;;;8.20;;
23362;SDS011;11853;48.080;11.960;2022-12-07T11:00:17;9.30;;;8.30;;
23362;SDS011;11853;48.080;11.960;2022-12-07T11:05:43;11.18;;;9.98;;
23362;SDS011;11853;48.080;11.960;2022-12-07T11:16:28;20.38;;;15.07;;
23362;SDS011;11853;48.080;11.960;2022-12-07T11:21:58;22.55;;;16.05;;
23362;SDS011;11853;48.080;11.960;2022-12-07T11:29:47;10.38;;;9.30;;
23362;SDS011;11853;48.080;11.960;2022-12-07T11:35:41;9.18;;;8.27;;
23362;SDS011;11853;48.080;11.960;2022-12-07T11:38:33;8.55;;;7.68;;
23362;SDS011;11853;48.080;11.960;2022-12-07T11:41:01;8.32;;;7.53;;
23362;SDS011;11853;48.080;11.960;2022-12-07T11:46:18;9.57;;;8.25;;
23362;SDS011;11853;48.080;11.960;2022-12-07T11:51:28;8.23;;;7.43;;
23362;SDS011;11853;48.080;11.960;2022-12-07T11:54:19;9.20;;;8.30;;
23362;SDS011;11853;48.080;11.960;2022-12-07T11:56:47;8.07;;;7.35;;
23362;SDS011;11853;48.080;11.960;2022-12-07T11:59:17;8.90;;;8.00;;
23362;SDS011;11853;48.080;11.960;2022-12-07T12:04:29;9.85;;;8.85;;
23362;SDS011;11853;48.080;11.960;2022-12-07T12:07:14;8.45;;;7.57;;
23362;SDS011;11853;48.080;11.960;2022-12-07T12:09:51;9.73;;;8.73;;
23362;SDS011;11853;48.080;11.960;2022-12-07T12:26:05;8.43;;;7.07;;
23362;SDS011;11853;48.080;11.960;2022-12-07T12:33:46;9.48;;;7.88;;
23362;SDS011;11853;48.080;11.960;2022-12-07T12:46:59;8.25;;;7.43;;
23362;SDS011;11853;48.080;11.960;2022-12-07T12:54:38;9.75;;;8.75;;
23362;SDS011;11853;48.080;11.960;2022-12-07T12:57:16;9.82;;;8.88;;
23362;SDS011;11853;48.080;11.960;2022-12-07T13:04:58;11.95;;;10.23;;
23362;SDS011;11853;48.080;11.960;2022-12-07T13:12:54;9.38;;;8.48;;
23362;SDS011;11853;48.080;11.960;2022-12-07T13:18:51;10.85;;;8.27;;
23362;SDS011;11853;48.080;11.960;2022-12-07T13:26:18;8.75;;;7.95;;
23362;SDS011;11853;48.080;11.960;2022-12-07T13:31:49;10.07;;;8.98;;
23362;SDS011;11853;48.080;11.960;2022-12-07T13:34:33;9.45;;;8.55;;
23362;SDS011;11853;48.080;11.960;2022-12-07T13:37:02;9.95;;;8.95;;
23362;SDS011;11853;48.080;11.960;2022-12-07T13:39:36;11.55;;;10.38;;
23362;SDS011;11853;48.080;11.960;2022-12-07T13:44:56;8.93;;;8.07;;
23362;SDS011;11853;48.080;11.960;2022-12-07T13:47:43;12.48;;;11.18;;
23362;SDS011;11853;48.080;11.960;2022-12-07T13:50:30;10.40;;;8.82;;
23362;SDS011;11853;48.080;11.960;2022-12-07T13:52:57;25.08;;;16.23;;
23362;SDS011;11853;48.080;11.960;2022-12-07T13:55:24;26.80;;;15.35;;
23362;SDS011;11853;48.080;11.960;2022-12-07T13:57:52;37.38;;;21.48;;
23362;SDS011;11853;48.080;11.960;2022-12-07T14:00:29;23.77;;;15.07;;
23362;SDS011;11853;48.080;11.960;2022-12-07T14:08:40;10.45;;;9.43;;
23362;SDS011;11853;48.080;11.960;2022-12-07T14:11:13;8.75;;;7.85;;
23362;SDS011;11853;48.080;11.960;2022-12-07T14:13:51;10.40;;;9.07;;
23362;SDS011;11853;48.080;11.960;2022-12-07T14:16:23;9.63;;;8.73;;
23362;SDS011;11853;48.080;11.960;2022-12-07T14:18:52;10.27;;;9.18;;
23362;SDS011;11853;48.080;11.960;2022-12-07T14:21:19;10.48;;;9.23;;
23362;SDS011;11853;48.080;11.960;2022-12-07T14:26:41;26.13;;;19.98;;
23362;SDS011;11853;48.080;11.960;2022-12-07T14:31:51;12.05;;;10.40;;
23362;SDS011;11853;48.080;11.960;2022-12-07T14:34:19;11.27;;;9.85;;
23362;SDS011;11853;48.080;11.960;2022-12-07T14:36:46;12.15;;;10.32;;
23362;SDS011;11853;48.080;11.960;2022-12-07T14:39:11;12.82;;;10.80;;
23362;SDS011;11853;48.080;11.960;2022-12-07T14:41:37;12.68;;;10.85;;
23362;SDS011;11853;48.080;11.960;2022-12-07T14:44:21;13.48;;;11.82;;
23362;SDS011;11853;48.080;11.960;2022-12-07T14:46:48;12.75;;;11.02;;
23362;SDS011;11853;48.080;11.960;2022-12-07T14:49:15;11.77;;;10.40;;
23362;SDS011;11853;48.080;11.960;2022-12-07T14:51:41;13.80;;;11.43;;
23362;SDS011;11853;48.080;11.960;2022-12-07T14:54:14;14.45;;;11.88;;
23362;SDS011;11853;48.080;11.960;2022-12-07T14:56:42;16.70;;;12.93;;
23362;SDS011;11853;48.080;11.960;2022-12-07T14:59:09;13.13;;;11.38;;
23362;SDS011;11853;48.080;11.960;2022-12-07T15:01:36;13.23;;;11.57;;
23362;SDS011;11853;48.080;11.960;2022-12-07T15:04:01;11.27;;;10.13;;
23362;SDS011;11853;48.080;11.960;2022-12-07T15:06:27;13.90;;;11.38;;
23362;SDS011;11853;48.080;11.960;2022-12-07T15:08:53;12.52;;;10.32;;
23362;SDS011;11853;48.080;11.960;2022-12-07T15:11:20;12.55;;;11.25;;
23362;SDS011;11853;48.080;11.960;2022-12-07T15:13:45;13.38;;;10.80;;
23362;SDS011;11853;48.080;11.960;2022-12-07T15:16:29;11.57;;;10.20;;
23362;SDS011;11853;48.080;11.960;2022-12-07T15:18:55;12.48;;;11.18;;
23362;SDS011;11853;48.080;11.960;2022-12-07T15:21:21;12.23;;;10.75;;
23362;SDS011;11853;48.080;11.960;2022-12-07T15:23:47;15.20;;;12.10;;
23362;SDS011;11853;48.080;11.960;2022-12-07T15:26:14;24.65;;;17.50;;
23362;SDS011;11853;48.080;11.960;2022-12-07T15:28:40;21.23;;;16.05;;
23362;SDS011;11853;48.080;11.960;2022-12-07T15:31:13;36.45;;;24.08;;
23362;SDS011;11853;48.080;11.960;2022-12-07T15:33:40;38.72;;;26.25;;
23362;SDS011;11853;48.080;11.960;2022-12-07T15:36:06;44.00;;;27.50;;
23362;SDS011;11853;48.080;11.960;2022-12-07T15:38:31;33.05;;;22.88;;
23362;SDS011;11853;48.080;11.960;2022-12-07T15:40:57;30.38;;;22.25;;
23362;SDS011;11853;48.080;11.960;2022-12-07T15:43:23;27.55;;;21.13;;
23362;SDS011;11853;48.080;11.960;2022-12-07T15:46:07;30.63;;;22.25;;
23362;SDS011;11853;48.080;11.960;2022-12-07T15:48:32;29.00;;;22.00;;
23362;SDS011;11853;48.080;11.960;2022-12-07T15:51:04;29.08;;;21.45;;
23362;SDS011;11853;48.080;11.960;2022-12-07T15:53:31;27.80;;;21.52;;
23362;SDS011;11853;48.080;11.960;2022-12-07T15:55:57;29.50;;;21.63;;
23362;SDS011;11853;48.080;11.960;2022-12-07T15:58:22;32.28;;;25.13;;
23362;SDS011;11853;48.080;11.960;2022-12-07T16:00:48;79.78;;;56.72;;
23362;SDS011;11853;48.080;11.960;2022-12-07T16:03:14;49.55;;;36.17;;
23362;SDS011;11853;48.080;11.960;2022-12-07T16:05:58;36.05;;;27.52;;
23362;SDS011;11853;48.080;11.960;2022-12-07T16:08:23;31.08;;;24.00;;
23362;SDS011;11853;48.080;11.960;2022-12-07T16:11:07;28.50;;;21.80;;
23362;SDS011;11853;48.080;11.960;2022-12-07T16:13:33;26.83;;;22.63;;
23362;SDS011;11853;48.080;11.960;2022-12-07T16:16:03;26.15;;;20.83;;
23362;SDS011;11853;48.080;11.960;2022-12-07T16:18:29;28.15;;;20.75;;
23362;SDS011;11853;48.080;11.960;2022-12-07T16:20:55;35.58;;;24.88;;
23362;SDS011;11853;48.080;11.960;2022-12-07T16:23:21;33.50;;;23.70;;
23362;SDS011;11853;48.080;11.960;2022-12-07T16:25:46;33.95;;;27.27;;
23362;SDS011;11853;48.080;11.960;2022-12-07T16:28:15;36.63;;;28.80;;
23362;SDS011;11853;48.080;11.960;2022-12-07T16:30:40;36.60;;;27.35;;
23362;SDS011;11853;48.080;11.960;2022-12-07T16:33:06;46.47;;;34.80;;
23362;SDS011;11853;48.080;11.960;2022-12-07T16:35:31;47.10;;;34.97;;
23362;SDS011;11853;48.080;11.960;2022-12-07T16:37:57;35.50;;;27.40;;
23362;SDS011;11853;48.080;11.960;2022-12-07T16:40:22;42.50;;;29.95;;
23362;SDS011;11853;48.080;11.960;2022-12-07T16:42:48;33.03;;;24.63;;
23362;SDS011;11853;48.080;11.960;2022-12-07T16:45:13;33.08;;;26.38;;
23362;SDS011;11853;48.080;11.960;2022-12-07T16:47:39;35.88;;;27.23;;
23362;SDS011;11853;48.080;11.960;2022-12-07T16:50:06;32.25;;;26.35;;
23362;SDS011;11853;48.080;11.960;2022-12-07T16:52:32;36.85;;;29.30;;
23362;SDS011;11853;48.080;11.960;2022-12-07T16:54:58;40.35;;;30.65;;
23362;SDS011;11853;48.080;11.960;2022-12-07T16:57:24;31.67;;;25.70;;
23362;SDS011;11853;48.080;11.960;2022-12-07T16:59:51;35.80;;;27.55;;
23362;SDS011;11853;48.080;11.960;2022-12-07T17:02:17;36.40;;;26.73;;
23362;SDS011;11853;48.080;11.960;2022-12-07T17:04:43;34.92;;;27.52;;
23362;SDS011;11853;48.080;11.960;2022-12-07T17:07:12;32.20;;;25.63;;
23362;SDS011;11853;48.080;11.960;2022-12-07T17:09:37;23.95;;;19.52;;
23362;SDS011;11853;48.080;11.960;2022-12-07T17:12:03;27.40;;;21.95;;
23362;SDS011;11853;48.080;11.960;2022-12-07T17:14:31;26.42;;;21.13;;